createdAt,value
2022-10-03T00:00:19.472Z,69.26
2022-10-03T00:03:20.382Z,69.16
2022-10-03T00:06:03.555Z,69.10
2022-10-03T00:08:56.651Z,69.03
2022-10-03T00:11:56.871Z,69.42
2022-10-03T00:14:47.898Z,69.14
2022-10-03T00:17:31.343Z,68.87
2022-10-03T00:20:08.726Z,68.58
2022-10-03T00:22:55.856Z,69.26
2022-10-03T00:25:28.375Z,70.39
2022-10-03T00:28:00.894Z,70.11
2022-10-03T00:30:48.688Z,69.92
2022-10-03T00:33:39.032Z,69.45
2022-10-03T00:36:25.721Z,68.79
2022-10-03T00:39:21.442Z,68.06
2022-10-03T00:42:40.230Z,67.95
2022-10-03T00:45:46.917Z,67.78
2022-10-03T00:48:48.083Z,68.15
2022-10-03T00:51:45.467Z,67.89
2022-10-03T00:54:39.798Z,67.99
2022-10-03T00:57:44.810Z,69.05
2022-10-03T01:00:22.691Z,69.51
2022-10-03T01:02:52.131Z,70.09
2022-10-03T01:05:36.496Z,69.98
2022-10-03T01:08:21.891Z,70.60
2022-10-03T01:11:28.449Z,70.80
2022-10-03T01:14:18.866Z,71.42
2022-10-03T01:17:04.351Z,70.90
2022-10-03T01:19:58.273Z,70.46
2022-10-03T01:22:55.398Z,70.80
2022-10-03T01:25:48.829Z,70.10
2022-10-03T01:29:01.693Z,69.86
2022-10-03T01:32:12.086Z,69.78
2022-10-03T01:35:11.768Z,70.22
2022-10-03T01:38:02.103Z,70.28
2022-10-03T01:40:30.117Z,69.84
2022-10-03T01:43:02.862Z,69.86
2022-10-03T01:45:45.368Z,69.44
2022-10-03T01:48:45.094Z,70.24
2022-10-03T01:51:41.274Z,69.89
2022-10-03T01:54:31.219Z,70.31
2022-10-03T01:57:19.084Z,69.65
2022-10-03T02:00:02.103Z,69.48
2022-10-03T02:02:39.466Z,69.53
2022-10-03T02:05:23.068Z,70.15
2022-10-03T02:08:05.824Z,70.20
2022-10-03T02:10:45.756Z,69.68
2022-10-03T02:13:22.024Z,70.21
2022-10-03T02:16:30.067Z,69.87
2022-10-03T02:19:21.407Z,69.41
2022-10-03T02:21:55.097Z,69.02
2022-10-03T02:24:39.663Z,68.88
2022-10-03T02:27:38.045Z,69.78
2022-10-03T02:30:47.632Z,70.45
2022-10-03T02:33:54.202Z,70.09
2022-10-03T02:37:06.585Z,69.80
2022-10-03T02:40:17.401Z,69.78
2022-10-03T02:43:11.202Z,69.19
2022-10-03T02:46:14.889Z,68.84
2022-10-03T02:48:59.730Z,68.47
2022-10-03T02:52:05.439Z,68.13
2022-10-03T02:55:14.556Z,68.42
2022-10-03T02:58:21.338Z,67.98
2022-10-03T03:01:24.960Z,68.67
2022-10-03T03:04:43.821Z,69.29
2022-10-03T03:07:39.544Z,70.64
2022-10-03T03:11:02.357Z,70.94
2022-10-03T03:14:09.412Z,70.66
2022-10-03T03:17:19.710Z,70.72
2022-10-03T03:20:27.680Z,70.59
2022-10-03T03:23:20.367Z,70.36
2022-10-03T03:26:09.060Z,70.11
2022-10-03T03:29:03.482Z,69.28
2022-10-03T03:32:00.323Z,69.00
2022-10-03T03:35:10.450Z,69.37
2022-10-03T03:38:14.159Z,69.42
2022-10-03T03:41:06.535Z,69.90
2022-10-03T03:44:11.787Z,69.82
2022-10-03T03:47:27.314Z,69.53
2022-10-03T03:51:03.271Z,68.88
2022-10-03T03:53:45.731Z,68.99
2022-10-03T03:56:33.256Z,69.08
2022-10-03T03:59:13.407Z,68.86
2022-10-03T04:02:15.181Z,68.80
2022-10-03T04:05:05.864Z,69.75
2022-10-03T04:08:25.718Z,70.33
2022-10-03T04:11:28.383Z,70.42
2022-10-03T04:14:52.609Z,70.09
2022-10-03T04:18:25.426Z,69.52
2022-10-03T04:21:20.829Z,69.29
2022-10-03T04:24:21.875Z,69.56
2022-10-03T04:27:14.865Z,69.30
2022-10-03T04:30:01.468Z,69.63
2022-10-03T04:33:09.185Z,69.62
2022-10-03T04:36:26.047Z,69.10
2022-10-03T04:39:23.545Z,69.61
2022-10-03T04:42:08.045Z,69.93
2022-10-03T04:44:50.031Z,70.02
2022-10-03T04:47:31.798Z,69.46
2022-10-03T04:50:13.130Z,69.31
2022-10-03T04:53:23.702Z,69.59
2022-10-03T04:56:30.256Z,69.23
2022-10-03T04:59:18.980Z,69.21
2022-10-03T05:02:51.383Z,69.86
2022-10-03T05:05:57.438Z,69.57
2022-10-03T05:08:47.639Z,69.47
2022-10-03T05:11:24.163Z,68.98
2022-10-03T05:14:07.363Z,69.09
2022-10-03T05:16:57.390Z,68.87
2022-10-03T05:20:00.661Z,69.01
2022-10-03T05:23:31.192Z,68.97
2022-10-03T05:26:43.591Z,69.45
2022-10-03T05:29:17.289Z,69.52
2022-10-03T05:32:27.537Z,69.36
2022-10-03T05:35:34.065Z,69.70
2022-10-03T05:38:50.448Z,69.07
2022-10-03T05:41:16.789Z,69.65
2022-10-03T05:44:04.534Z,69.50
2022-10-03T05:46:52.620Z,69.80
2022-10-03T05:49:48.697Z,69.57
2022-10-03T05:52:52.118Z,69.88
2022-10-03T05:55:43.259Z,69.75
2022-10-03T05:58:27.894Z,69.02
2022-10-03T06:01:11.321Z,69.37
2022-10-03T06:04:05.907Z,69.61
2022-10-03T06:06:57.313Z,69.36
2022-10-03T06:09:46.471Z,70.29
2022-10-03T06:12:34.679Z,70.07
2022-10-03T06:15:39.509Z,69.87
2022-10-03T06:18:44.866Z,69.73
2022-10-03T06:21:44.786Z,70.11
2022-10-03T06:24:49.245Z,70.03
2022-10-03T06:27:41.412Z,69.85
2022-10-03T06:31:11.284Z,70.29
2022-10-03T06:34:20.825Z,70.86
2022-10-03T06:37:18.515Z,70.71
2022-10-03T06:40:32.600Z,70.41
2022-10-03T06:43:43.426Z,70.60
2022-10-03T06:46:31.447Z,70.31
2022-10-03T06:49:42.745Z,70.17
2022-10-03T06:52:50.258Z,69.78
2022-10-03T06:56:02.345Z,69.99
2022-10-03T06:59:15.580Z,69.58
2022-10-03T07:02:27.168Z,70.15
2022-10-03T07:05:40.815Z,69.82
2022-10-03T07:08:35.389Z,69.78
2022-10-03T07:11:06.930Z,70.24
2022-10-03T07:13:58.985Z,70.91
2022-10-03T07:17:05.502Z,71.22
2022-10-03T07:20:08.828Z,71.01
2022-10-03T07:23:06.320Z,70.92
2022-10-03T07:26:10.745Z,71.54
2022-10-03T07:28:52.007Z,71.41
2022-10-03T07:31:51.670Z,70.80
2022-10-03T07:34:39.327Z,70.71
2022-10-03T07:38:07.276Z,70.54
2022-10-03T07:41:13.556Z,69.99
2022-10-03T07:44:24.092Z,70.53
2022-10-03T07:47:33.542Z,70.56
2022-10-03T07:50:47.151Z,70.51
2022-10-03T07:54:16.781Z,70.62
2022-10-03T07:57:03.813Z,71.82
2022-10-03T07:59:54.658Z,71.60
2022-10-03T08:02:59.374Z,71.80
2022-10-03T08:06:03.696Z,71.19
2022-10-03T08:08:50.318Z,71.26
2022-10-03T08:11:59.095Z,71.35
2022-10-03T08:14:58.127Z,71.65
2022-10-03T08:17:49.712Z,71.81
2022-10-03T08:21:32.827Z,72.18
2022-10-03T08:24:17.013Z,72.88
2022-10-03T08:27:12.464Z,72.62
2022-10-03T08:30:04.086Z,72.24
2022-10-03T08:32:57.553Z,71.96
2022-10-03T08:36:03.893Z,71.73
2022-10-03T08:38:57.566Z,71.70
2022-10-03T08:42:19.841Z,71.98
2022-10-03T08:44:58.143Z,71.44
2022-10-03T08:47:44.221Z,71.26
2022-10-03T08:50:41.485Z,70.55
2022-10-03T08:53:36.358Z,70.03
2022-10-03T08:56:35.624Z,69.79
2022-10-03T08:59:35.325Z,70.14
2022-10-03T09:02:40.098Z,69.76
2022-10-03T09:05:31.586Z,69.46
2022-10-03T09:08:51.970Z,69.35
2022-10-03T09:11:59.175Z,69.25
2022-10-03T09:14:46.131Z,68.99
2022-10-03T09:17:24.673Z,68.91
2022-10-03T09:20:20.967Z,68.33
2022-10-03T09:23:05.507Z,67.44
2022-10-03T09:26:17.027Z,66.89
2022-10-03T09:29:06.164Z,67.17
2022-10-03T09:32:06.741Z,67.52
2022-10-03T09:35:07.043Z,67.85
2022-10-03T09:37:39.466Z,67.89
2022-10-03T09:40:50.038Z,67.24
2022-10-03T09:44:05.673Z,67.51
2022-10-03T09:47:22.871Z,67.17
2022-10-03T09:50:32.489Z,67.20
2022-10-03T09:53:27.922Z,67.09
2022-10-03T09:56:33.438Z,67.09
2022-10-03T09:59:33.448Z,67.16
2022-10-03T10:02:39.827Z,67.12
2022-10-03T10:05:53.646Z,66.59
2022-10-03T10:09:15.599Z,66.26
2022-10-03T10:12:11.460Z,66.54
2022-10-03T10:15:22.540Z,65.32
2022-10-03T10:18:19.559Z,64.34
2022-10-03T10:21:46.211Z,63.83
2022-10-03T10:24:55.971Z,63.97
2022-10-03T10:27:48.674Z,63.51
2022-10-03T10:30:41.675Z,63.83
2022-10-03T10:33:47.383Z,63.87
2022-10-03T10:37:09.647Z,63.42
2022-10-03T10:40:13.323Z,62.47
2022-10-03T10:43:32.834Z,60.67
2022-10-03T10:46:40.907Z,61.56
2022-10-03T10:50:04.015Z,60.41
2022-10-03T10:53:27.715Z,59.83
2022-10-03T10:56:42.890Z,59.03
2022-10-03T10:59:57.092Z,59.35
2022-10-03T11:03:19.735Z,58.83
2022-10-03T11:06:53.352Z,58.59
2022-10-03T11:09:52.494Z,58.29
2022-10-03T11:13:04.995Z,58.60
2022-10-03T11:16:24.825Z,58.32
2022-10-03T11:19:41.886Z,57.52
2022-10-03T11:22:27.129Z,58.11
2022-10-03T11:25:40.783Z,57.78
2022-10-03T11:28:38.401Z,57.73
2022-10-03T11:31:59.439Z,56.86
2022-10-03T11:34:57.172Z,56.91
2022-10-03T11:37:47.980Z,57.36
2022-10-03T11:40:34.942Z,56.01
2022-10-03T11:43:37.262Z,56.19
2022-10-03T11:46:57.127Z,57.42
2022-10-03T11:49:50.108Z,57.63
2022-10-03T11:53:03.966Z,56.75
2022-10-03T11:55:52.016Z,56.15
2022-10-03T11:59:04.835Z,56.25
2022-10-03T12:02:34.957Z,56.78
2022-10-03T12:05:37.559Z,56.05
2022-10-03T12:08:47.435Z,55.87
2022-10-03T12:11:32.884Z,55.43
2022-10-03T12:14:28.995Z,55.84
2022-10-03T12:17:33.468Z,54.62
2022-10-03T12:20:23.231Z,55.60
2022-10-03T12:23:01.584Z,55.74
2022-10-03T12:25:34.722Z,55.58
2022-10-03T12:28:24.939Z,55.47
2022-10-03T12:31:01.143Z,55.12
2022-10-03T12:33:46.815Z,54.36
2022-10-03T12:36:36.239Z,54.98
2022-10-03T12:39:31.790Z,55.03
2022-10-03T12:42:36.590Z,53.74
2022-10-03T12:45:26.846Z,54.91
2022-10-03T12:48:49.178Z,54.87
2022-10-03T12:51:54.138Z,52.93
2022-10-03T12:54:38.953Z,54.29
2022-10-03T12:57:45.599Z,53.42
2022-10-03T13:00:30.032Z,53.64
2022-10-03T13:03:20.712Z,54.37
2022-10-03T13:06:38.832Z,53.75
2022-10-03T13:09:33.501Z,54.86
2022-10-03T13:12:07.418Z,54.21
2022-10-03T13:15:41.694Z,54.74
2022-10-03T13:18:45.259Z,55.10
2022-10-03T13:21:49.415Z,55.08
2022-10-03T13:24:32.163Z,55.04
2022-10-03T13:27:32.141Z,55.61
2022-10-03T13:30:24.475Z,56.18
2022-10-03T13:33:09.108Z,55.71
2022-10-03T13:35:59.644Z,54.77
2022-10-03T13:38:59.779Z,54.19
2022-10-03T13:41:42.742Z,54.92
2022-10-03T13:44:23.637Z,55.41
2022-10-03T13:47:24.986Z,55.83
2022-10-03T13:50:01.154Z,54.82
2022-10-03T13:52:44.511Z,55.21
2022-10-03T13:55:26.392Z,55.28
2022-10-03T13:58:17.288Z,54.94
2022-10-03T14:01:11.551Z,55.13
2022-10-03T14:04:20.114Z,55.21
2022-10-03T14:07:07.639Z,55.35
2022-10-03T14:10:19.060Z,55.03
2022-10-03T14:12:58.395Z,54.91
2022-10-03T14:15:43.919Z,54.97
2022-10-03T14:19:14.739Z,55.07
2022-10-03T14:22:07.055Z,54.50
2022-10-03T14:25:34.513Z,54.75
2022-10-03T14:28:22.807Z,54.63
2022-10-03T14:31:14.955Z,54.48
2022-10-03T14:33:48.727Z,53.64
2022-10-03T14:36:49.754Z,53.25
2022-10-03T14:39:48.496Z,54.03
2022-10-03T14:42:48.045Z,53.68
2022-10-03T14:45:18.773Z,53.30
2022-10-03T14:47:55.221Z,53.56
2022-10-03T14:50:25.780Z,54.73
2022-10-03T14:53:18.046Z,53.78
2022-10-03T14:56:02.804Z,53.68
2022-10-03T14:58:44.052Z,53.43
2022-10-03T15:01:24.684Z,53.63
2022-10-03T15:04:15.936Z,53.83
2022-10-03T15:06:45.047Z,53.94
2022-10-03T15:09:18.504Z,53.50
2022-10-03T15:12:14.463Z,53.30
2022-10-03T15:14:47.135Z,54.51
2022-10-03T15:17:25.028Z,54.26
2022-10-03T15:19:55.842Z,54.69
2022-10-03T15:22:50.949Z,55.13
2022-10-03T15:25:42.430Z,54.93
2022-10-03T15:28:19.238Z,55.34
2022-10-03T15:30:47.219Z,55.63
2022-10-03T15:33:34.362Z,55.31
2022-10-03T15:36:16.851Z,55.29
2022-10-03T15:38:52.015Z,55.32
2022-10-03T15:41:36.498Z,55.40
2022-10-03T15:44:18.181Z,56.31
2022-10-03T15:47:04.917Z,55.82
2022-10-03T15:49:39.851Z,56.25
2022-10-03T15:52:21.108Z,55.89
2022-10-03T15:55:12.313Z,56.56
2022-10-03T15:57:46.782Z,56.87
2022-10-03T16:00:30.929Z,57.53
2022-10-03T16:03:41.832Z,57.40
2022-10-03T16:06:17.806Z,57.55
2022-10-03T16:09:06.073Z,58.14
2022-10-03T16:11:44.215Z,59.37
2022-10-03T16:14:20.581Z,60.18
2022-10-03T16:17:00.629Z,60.73
2022-10-03T16:19:41.980Z,61.55
2022-10-03T16:22:32.812Z,61.92
2022-10-03T16:25:18.210Z,61.94
2022-10-03T16:27:57.994Z,61.29
2022-10-03T16:30:35.280Z,61.21
2022-10-03T16:33:16.453Z,62.52
2022-10-03T16:35:53.011Z,63.51
2022-10-03T16:38:34.981Z,65.85
2022-10-03T16:41:24.402Z,65.27
2022-10-03T16:44:47.435Z,66.32
2022-10-03T16:47:16.634Z,66.35
2022-10-03T16:50:15.927Z,66.14
2022-10-03T16:52:48.713Z,66.79
2022-10-03T16:55:23.646Z,66.33
2022-10-03T16:58:02.749Z,66.74
2022-10-03T17:01:09.014Z,66.88
2022-10-03T17:03:48.822Z,67.15
2022-10-03T17:06:27.324Z,66.66
2022-10-03T17:09:01.717Z,67.16
2022-10-03T17:11:32.156Z,67.56
2022-10-03T17:14:05.294Z,67.79
2022-10-03T17:16:56.789Z,67.90
2022-10-03T17:19:34.841Z,68.05
2022-10-03T17:22:26.100Z,68.55
2022-10-03T17:25:20.059Z,68.46
2022-10-03T17:27:52.362Z,68.86
2022-10-03T17:30:51.564Z,69.07
2022-10-03T17:33:52.165Z,69.17
2022-10-03T17:36:54.952Z,68.70
2022-10-03T17:40:02.603Z,69.21
2022-10-03T17:42:39.623Z,69.56
2022-10-03T17:45:41.402Z,68.83
2022-10-03T17:48:41.199Z,67.82
2022-10-03T17:51:32.589Z,67.49
2022-10-03T17:54:16.316Z,68.34
2022-10-03T17:56:53.994Z,69.28
2022-10-03T17:59:46.678Z,69.62
2022-10-03T18:02:37.181Z,69.30
2022-10-03T18:05:14.863Z,69.18
2022-10-03T18:07:43.249Z,69.69
2022-10-03T18:10:23.095Z,69.81
2022-10-03T18:12:55.694Z,69.68
2022-10-03T18:16:07.636Z,69.85
2022-10-03T18:19:11.448Z,70.33
2022-10-03T18:22:30.887Z,70.09
2022-10-03T18:25:36.750Z,69.07
2022-10-03T18:28:24.816Z,69.49
2022-10-03T18:31:05.887Z,68.76
2022-10-03T18:34:11.543Z,69.47
2022-10-03T18:36:49.429Z,69.44
2022-10-03T18:39:38.651Z,68.97
2022-10-03T18:42:11.685Z,68.86
2022-10-03T18:44:44.868Z,69.58
2022-10-03T18:47:37.792Z,68.80
2022-10-03T18:50:30.153Z,69.52
2022-10-03T18:53:26.892Z,69.62
2022-10-03T18:56:06.529Z,70.13
2022-10-03T18:58:39.485Z,69.98
2022-10-03T19:01:17.764Z,69.25
2022-10-03T19:04:00.781Z,69.22
2022-10-03T19:06:34.990Z,69.65
2022-10-03T19:09:19.475Z,69.34
2022-10-03T19:11:59.908Z,69.84
2022-10-03T19:14:37.189Z,69.97
2022-10-03T19:17:30.830Z,69.59
2022-10-03T19:20:23.067Z,69.84
2022-10-03T19:23:03.766Z,69.72
2022-10-03T19:25:33.301Z,70.30
2022-10-03T19:28:17.005Z,69.99
2022-10-03T19:30:45.923Z,69.77
2022-10-03T19:33:27.065Z,69.66
2022-10-03T19:36:02.878Z,69.70
2022-10-03T19:38:43.649Z,69.31
2022-10-03T19:41:35.207Z,69.16
2022-10-03T19:44:16.406Z,68.63
2022-10-03T19:46:53.598Z,68.33
2022-10-03T19:49:48.820Z,69.13
2022-10-03T19:52:34.136Z,69.83
2022-10-03T19:55:15.716Z,70.13
2022-10-03T19:57:50.656Z,69.79
2022-10-03T20:00:20.290Z,70.03
2022-10-03T20:02:56.446Z,70.22
2022-10-03T20:05:36.674Z,70.02
2022-10-03T20:08:22.799Z,69.93
2022-10-03T20:11:02.708Z,70.13
2022-10-03T20:13:29.386Z,69.88
2022-10-03T20:15:58.454Z,70.03
2022-10-03T20:18:34.368Z,70.02
2022-10-03T20:21:08.537Z,70.36
2022-10-03T20:23:40.961Z,70.32
2022-10-03T20:26:56.900Z,69.89
2022-10-03T20:29:31.946Z,69.35
2022-10-03T20:32:04.228Z,69.55
2022-10-03T20:34:34.272Z,69.81
2022-10-03T20:37:19.331Z,69.99
2022-10-03T20:39:49.457Z,70.73
2022-10-03T20:42:26.176Z,70.78
2022-10-03T20:45:03.251Z,70.95
2022-10-03T20:47:50.819Z,71.04
2022-10-03T20:50:48.028Z,71.29
2022-10-03T20:53:24.571Z,71.24
2022-10-03T20:55:54.846Z,72.13
2022-10-03T20:58:34.365Z,71.02
2022-10-03T21:01:10.645Z,70.60
2022-10-03T21:03:45.860Z,70.65
2022-10-03T21:06:20.749Z,70.91
2022-10-03T21:08:48.067Z,71.00
2022-10-03T21:11:32.894Z,70.56
2022-10-03T21:14:20.272Z,69.99
2022-10-03T21:16:52.397Z,69.36
2022-10-03T21:19:29.316Z,69.37
2022-10-03T21:22:03.678Z,69.79
2022-10-03T21:24:41.554Z,69.52
2022-10-03T21:27:15.570Z,69.57
2022-10-03T21:29:56.640Z,70.41
2022-10-03T21:32:55.488Z,70.46
2022-10-03T21:35:29.539Z,69.75
2022-10-03T21:38:27.460Z,69.48
2022-10-03T21:41:12.040Z,69.32
2022-10-03T21:43:58.018Z,69.50
2022-10-03T21:46:47.834Z,69.57
2022-10-03T21:49:29.167Z,69.51
2022-10-03T21:52:40.584Z,68.58
2022-10-03T21:55:53.541Z,68.56
2022-10-03T21:58:38.118Z,68.33
2022-10-03T22:01:30.418Z,67.95
2022-10-03T22:04:22.544Z,68.36
2022-10-03T22:07:10.217Z,68.10
2022-10-03T22:09:46.922Z,68.23
2022-10-03T22:12:13.925Z,68.69
2022-10-03T22:14:55.100Z,68.56
2022-10-03T22:17:42.455Z,68.54
2022-10-03T22:20:23.144Z,68.25
2022-10-03T22:23:25.479Z,68.21
2022-10-03T22:26:21.303Z,68.71
2022-10-03T22:29:32.094Z,69.22
2022-10-03T22:32:22.490Z,70.43
2022-10-03T22:35:46.630Z,70.28
2022-10-03T22:38:17.391Z,70.12
2022-10-03T22:40:47.579Z,69.84
2022-10-03T22:43:15.764Z,69.91
2022-10-03T22:45:49.720Z,70.00
2022-10-03T22:48:25.317Z,70.35
2022-10-03T22:50:55.159Z,69.98
2022-10-03T22:53:28.268Z,70.48
2022-10-03T22:55:59.643Z,69.99
2022-10-03T22:58:30.438Z,70.96
2022-10-03T23:01:00.907Z,70.58
2022-10-03T23:03:34.042Z,70.49
2022-10-03T23:06:42.295Z,69.48
2022-10-03T23:09:35.957Z,70.75
2022-10-03T23:12:04.309Z,69.67
2022-10-03T23:14:43.062Z,69.63
2022-10-03T23:17:24.675Z,69.67
2022-10-03T23:20:31.529Z,68.73
2022-10-03T23:23:12.903Z,68.57
2022-10-03T23:26:29.273Z,68.81
2022-10-03T23:29:12.023Z,69.35
2022-10-03T23:31:55.253Z,69.42
2022-10-03T23:34:39.158Z,68.87
2022-10-03T23:37:12.541Z,68.69
2022-10-03T23:39:43.144Z,68.37
2022-10-03T23:42:24.699Z,68.20
2022-10-03T23:45:15.854Z,68.71
2022-10-03T23:48:02.081Z,68.86
2022-10-03T23:50:45.879Z,69.39
2022-10-03T23:53:38.857Z,69.16
2022-10-03T23:56:26.634Z,69.42
2022-10-03T23:59:14.823Z,69.05
